Time;durP1;ratioP1;P1;durP2;ratioP2;P2;SDS_P1;SDS_P2;PMS_P1;PMS_P2;Temp;Humidity;BMP_temperature;BMP_pressure;BME280_temperature;BME280_humidity;BME280_pressure;Samples;Min_cycle;Max_cycle;Signal;HPM_P1;HPM_P2
2023/05/06 00:02:13;;;;;;;5.10;4.53;;;16.90;99.90;;;;;;5071124;28;20254;-69
2023/05/06 00:04:42;;;;;;;5.03;4.53;;;16.90;99.90;;;;;;5071268;28;20270;-67
2023/05/06 00:07:08;;;;;;;5.43;4.40;;;16.90;99.90;;;;;;5071803;28;20208;-69
2023/05/06 00:09:35;;;;;;;4.45;4.05;;;16.90;99.90;;;;;;5072544;28;20205;-65
2023/05/06 00:12:02;;;;;;;5.38;4.68;;;16.80;99.90;;;;;;5072034;28;20532;-65
2023/05/06 00:14:28;;;;;;;5.85;4.47;;;16.80;99.90;;;;;;5071729;28;20247;-65
2023/05/06 00:16:55;;;;;;;7.38;6.57;;;16.80;99.90;;;;;;5071951;28;20278;-65
2023/05/06 00:19:22;;;;;;;5.20;4.68;;;16.70;99.90;;;;;;5072265;28;20216;-64
2023/05/06 00:21:50;;;;;;;4.63;4.00;;;16.60;99.90;;;;;;5072158;28;20290;-65
2023/05/06 00:24:16;;;;;;;5.20;4.70;;;16.60;99.90;;;;;;5071749;28;20282;-66
2023/05/06 00:26:43;;;;;;;6.57;4.57;;;16.50;99.90;;;;;;5072133;28;20322;-65
2023/05/06 00:29:10;;;;;;;4.90;4.40;;;16.50;99.90;;;;;;5071460;28;20205;-64
2023/05/06 00:31:36;;;;;;;7.33;4.90;;;16.30;99.90;;;;;;5071925;28;20205;-65
2023/05/06 00:34:03;;;;;;;6.78;4.65;;;16.30;99.90;;;;;;5071880;28;20221;-65
2023/05/06 00:36:30;;;;;;;4.78;4.20;;;16.40;99.90;;;;;;5071700;28;20204;-63
2023/05/06 00:38:58;;;;;;;5.43;4.60;;;16.30;99.90;;;;;;5071961;28;20207;-65
2023/05/06 00:41:25;;;;;;;5.38;4.60;;;16.30;99.90;;;;;;5071251;28;20224;-65
2023/05/06 00:43:51;;;;;;;5.10;4.50;;;16.30;99.90;;;;;;5071481;28;20236;-65
2023/05/06 00:46:18;;;;;;;5.23;4.73;;;16.30;99.90;;;;;;5071431;28;20239;-65
2023/05/06 00:48:45;;;;;;;6.17;5.27;;;16.30;99.90;;;;;;5071226;28;20255;-65
2023/05/06 00:51:12;;;;;;;7.43;5.00;;;16.40;99.90;;;;;;5071399;28;20211;-65
2023/05/06 00:53:39;;;;;;;6.43;5.13;;;16.40;99.90;;;;;;5071137;28;20232;-65
2023/05/06 00:56:07;;;;;;;5.07;4.57;;;16.40;99.90;;;;;;5071143;28;20292;-65
2023/05/06 00:58:34;;;;;;;6.65;5.57;;;16.40;99.90;;;;;;5071237;28;20495;-65
2023/05/06 01:01:01;;;;;;;5.53;4.93;;;16.40;99.90;;;;;;5071253;28;20229;-65
2023/05/06 01:03:28;;;;;;;5.63;5.03;;;16.40;99.90;;;;;;5071089;28;20229;-65
2023/05/06 01:06:04;;;;;;;5.85;4.63;;;16.30;99.90;;;;;;5070990;28;20234;-65
2023/05/06 01:08:34;;;;;;;5.85;4.50;;;16.10;99.90;;;;;;5074703;28;20209;-65
2023/05/06 01:11:09;;;;;;;6.38;4.82;;;16.10;99.90;;;;;;5075329;28;20629;-65
2023/05/06 01:13:45;;;;;;;5.93;5.00;;;16.30;99.90;;;;;;5075027;28;20282;-65
2023/05/06 01:16:14;;;;;;;6.13;4.72;;;16.30;99.90;;;;;;5074732;28;20204;-65
2023/05/06 01:18:42;;;;;;;6.82;4.80;;;16.40;99.90;;;;;;5074571;28;20205;-64
2023/05/06 01:21:11;;;;;;;20.33;18.33;;;16.40;99.90;;;;;;5074570;28;20221;-65
2023/05/06 01:23:52;;;;;;;24.45;22.02;;;16.30;99.90;;;;;;5074537;28;20715;-65
2023/05/06 01:26:19;;;;;;;9.60;7.90;;;16.20;99.90;;;;;;5074644;28;20215;-65
2023/05/06 01:28:46;;;;;;;7.15;6.00;;;16.20;99.90;;;;;;5074244;28;20205;-65
2023/05/06 01:31:16;;;;;;;8.32;5.28;;;16.10;99.90;;;;;;5074309;28;20201;-65
2023/05/06 01:33:48;;;;;;;5.65;5.15;;;15.90;99.90;;;;;;5074308;28;20407;-65
2023/05/06 01:36:23;;;;;;;5.85;5.20;;;15.80;99.90;;;;;;5074458;28;20212;-65
2023/05/06 01:39:00;;;;;;;6.65;4.90;;;15.70;99.90;;;;;;5074363;28;20227;-62
2023/05/06 01:41:27;;;;;;;5.20;4.70;;;15.60;99.90;;;;;;5074338;28;20228;-65
2023/05/06 01:43:54;;;;;;;6.82;4.97;;;15.60;99.90;;;;;;5074458;28;20282;-64
2023/05/06 01:46:23;;;;;;;6.43;5.63;;;15.50;99.90;;;;;;5074173;28;20209;-64
2023/05/06 01:48:53;;;;;;;6.17;5.23;;;15.40;99.90;;;;;;5073998;28;20204;-64
2023/05/06 01:51:21;;;;;;;6.15;5.55;;;15.40;99.90;;;;;;5074287;28;20224;-64
2023/05/06 01:53:47;;;;;;;6.83;5.17;;;15.30;99.90;;;;;;5074139;28;20274;-64
2023/05/06 01:56:16;;;;;;;6.67;5.57;;;15.30;99.90;;;;;;5074001;28;20205;-64
2023/05/06 01:58:43;;;;;;;7.60;5.53;;;15.30;99.90;;;;;;5073769;28;20208;-64
2023/05/06 02:01:09;;;;;;;7.47;5.30;;;15.40;99.90;;;;;;5074088;28;20236;-64
2023/05/06 02:03:36;;;;;;;6.07;5.50;;;15.50;99.90;;;;;;5073924;28;20224;-64
2023/05/06 02:06:03;;;;;;;6.10;5.23;;;15.50;99.90;;;;;;5073851;28;20648;-64
2023/05/06 02:08:30;;;;;;;7.65;5.00;;;15.60;99.90;;;;;;5073699;28;20296;-64
2023/05/06 02:10:57;;;;;;;5.33;4.80;;;15.80;99.90;;;;;;5073876;28;20615;-63
2023/05/06 02:13:25;;;;;;;5.85;4.90;;;15.80;99.90;;;;;;5073952;28;20294;-64
2023/05/06 02:15:53;;;;;;;7.97;5.45;;;15.90;99.90;;;;;;5073907;28;20212;-64
2023/05/06 02:18:20;;;;;;;5.68;5.05;;;16.00;99.90;;;;;;5073422;28;20304;-63
2023/05/06 02:20:46;;;;;;;6.50;5.60;;;16.00;99.90;;;;;;5073382;28;20306;-65
2023/05/06 02:23:13;;;;;;;6.13;4.72;;;16.10;99.90;;;;;;5073738;28;20592;-64
2023/05/06 02:25:40;;;;;;;5.88;3.80;;;16.10;99.90;;;;;;5073691;28;20220;-65
2023/05/06 02:28:06;;;;;;;3.53;3.22;;;16.10;99.90;;;;;;5073780;28;20205;-65
2023/05/06 02:30:35;;;;;;;5.70;3.67;;;16.10;99.90;;;;;;5073553;28;20209;-65
2023/05/06 02:33:02;;;;;;;4.28;3.38;;;16.20;99.90;;;;;;5073827;28;20208;-65
2023/05/06 02:35:28;;;;;;;3.90;3.28;;;16.20;99.90;;;;;;5073426;28;20224;-65
2023/05/06 02:37:55;;;;;;;4.50;3.20;;;16.20;99.90;;;;;;5073478;28;20215;-65
2023/05/06 02:40:22;;;;;;;3.90;3.25;;;16.20;99.90;;;;;;5073215;28;20278;-65
2023/05/06 02:42:49;;;;;;;4.63;3.33;;;16.20;99.90;;;;;;5073202;28;20789;-64
2023/05/06 02:45:15;;;;;;;5.78;3.13;;;16.20;99.90;;;;;;5073306;28;20259;-64
2023/05/06 02:47:43;;;;;;;4.33;2.80;;;16.20;99.90;;;;;;5073574;28;20267;-64
2023/05/06 02:50:10;;;;;;;3.83;3.05;;;16.20;99.90;;;;;;5073013;28;20209;-64
2023/05/06 02:52:37;;;;;;;6.20;3.25;;;16.30;99.90;;;;;;5073209;28;20212;-65
2023/05/06 02:55:05;;;;;;;4.65;3.20;;;16.20;99.90;;;;;;5073054;28;20254;-65
2023/05/06 02:57:32;;;;;;;4.18;3.50;;;16.20;99.90;;;;;;5073206;28;20213;-65
2023/05/06 02:59:59;;;;;;;5.78;3.13;;;16.20;99.90;;;;;;5073106;28;20300;-65
2023/05/06 03:02:25;;;;;;;18.10;15.98;;;16.20;99.90;;;;;;5072759;28;20225;-65
2023/05/06 03:04:53;;;;;;;4.72;3.70;;;16.20;99.90;;;;;;5072840;28;20224;-63
2023/05/06 03:07:20;;;;;;;4.38;2.95;;;16.20;99.90;;;;;;5072826;28;20205;-64
2023/05/06 03:09:47;;;;;;;3.92;3.22;;;16.30;99.90;;;;;;5072793;28;20220;-64
2023/05/06 03:12:13;;;;;;;6.90;3.30;;;16.30;99.90;;;;;;5072997;28;20387;-64
2023/05/06 03:14:40;;;;;;;4.40;3.60;;;16.30;99.90;;;;;;5072674;28;20732;-65
2023/05/06 03:17:07;;;;;;;3.78;3.30;;;16.30;99.90;;;;;;5072936;28;20300;-64
2023/05/06 03:19:33;;;;;;;5.30;3.28;;;16.30;99.90;;;;;;5072396;28;20212;-63
2023/05/06 03:22:02;;;;;;;6.33;4.50;;;16.30;99.90;;;;;;5072329;28;20229;-64
2023/05/06 03:24:28;;;;;;;6.75;3.75;;;16.30;99.90;;;;;;5072562;28;20229;-64
2023/05/06 03:26:57;;;;;;;8.23;3.60;;;16.20;99.90;;;;;;5072647;28;20211;-64
2023/05/06 03:29:23;;;;;;;5.40;4.40;;;16.10;99.90;;;;;;5071626;28;20274;-63
2023/05/06 03:31:50;;;;;;;5.97;4.20;;;16.00;99.90;;;;;;5072741;28;20197;-63
2023/05/06 03:34:17;;;;;;;7.13;4.05;;;16.00;99.90;;;;;;5072666;28;20274;-63
2023/05/06 03:36:44;;;;;;;4.70;3.90;;;15.90;99.90;;;;;;5072647;28;20266;-64
2023/05/06 03:39:12;;;;;;;4.00;3.60;;;15.90;99.90;;;;;;5072484;28;20623;-64
2023/05/06 03:41:38;;;;;;;9.63;4.40;;;15.90;99.90;;;;;;5072482;28;20232;-64
2023/05/06 03:44:05;;;;;;;5.27;3.83;;;15.90;99.90;;;;;;5072474;28;20232;-64
2023/05/06 03:46:32;;;;;;;6.67;4.47;;;15.90;99.90;;;;;;5072106;28;20212;-66
2023/05/06 03:49:01;;;;;;;5.70;3.93;;;15.90;99.90;;;;;;5071903;28;20244;-66
2023/05/06 03:51:28;;;;;;;4.80;4.13;;;15.90;99.90;;;;;;5072175;28;20200;-65
2023/05/06 03:53:55;;;;;;;6.15;4.25;;;15.90;99.90;;;;;;5071991;28;20232;-65
2023/05/06 03:56:23;;;;;;;6.10;4.32;;;15.90;99.90;;;;;;5072085;28;20272;-66
2023/05/06 03:58:50;;;;;;;4.47;3.97;;;15.80;99.90;;;;;;5071900;28;20205;-65
2023/05/06 04:01:17;;;;;;;8.03;3.97;;;15.80;99.90;;;;;;5071767;28;20319;-66
2023/05/06 04:03:43;;;;;;;5.03;3.90;;;15.80;99.90;;;;;;5071736;28;20235;-66
2023/05/06 04:06:10;;;;;;;5.43;4.15;;;15.80;99.90;;;;;;5071979;28;20243;-65
2023/05/06 04:08:37;;;;;;;5.70;4.30;;;15.80;99.90;;;;;;5071671;28;20209;-66
2023/05/06 04:11:04;;;;;;;6.63;4.50;;;15.80;99.90;;;;;;5071881;28;20558;-65
2023/05/06 04:13:33;;;;;;;5.70;4.50;;;15.70;99.90;;;;;;5071624;28;20278;-65
2023/05/06 04:16:00;;;;;;;10.97;7.20;;;15.70;99.90;;;;;;5071666;28;20216;-65
2023/05/06 04:18:26;;;;;;;8.50;5.80;;;15.70;99.90;;;;;;5071480;28;20569;-64
2023/05/06 04:20:53;;;;;;;8.53;5.43;;;15.60;99.90;;;;;;5071612;28;20639;-64
2023/05/06 04:23:20;;;;;;;5.83;4.57;;;15.60;99.90;;;;;;5071700;28;20228;-65
2023/05/06 04:25:48;;;;;;;5.13;4.40;;;15.60;99.90;;;;;;5071620;28;20201;-65
2023/05/06 04:28:16;;;;;;;5.03;4.00;;;15.60;99.90;;;;;;5071755;28;20295;-64
2023/05/06 04:30:45;;;;;;;9.60;4.90;;;15.60;99.90;;;;;;5071269;28;20303;-64
2023/05/06 04:33:12;;;;;;;11.30;7.83;;;15.60;99.90;;;;;;5071651;28;20204;-65
2023/05/06 04:35:39;;;;;;;6.40;4.50;;;15.60;99.90;;;;;;5071643;28;20205;-65
2023/05/06 04:38:06;;;;;;;7.50;4.05;;;15.60;99.90;;;;;;5071580;28;20686;-65
2023/05/06 04:40:35;;;;;;;9.73;5.80;;;15.60;99.90;;;;;;5071793;28;20251;-64
2023/05/06 04:43:02;;;;;;;5.18;4.18;;;15.70;99.90;;;;;;5075566;28;20254;-64
2023/05/06 04:45:28;;;;;;;5.97;4.30;;;15.70;99.90;;;;;;5075283;28;20216;-65
2023/05/06 04:47:56;;;;;;;6.50;5.07;;;15.80;99.90;;;;;;5075399;28;20615;-65
2023/05/06 04:50:23;;;;;;;7.70;5.63;;;15.90;99.90;;;;;;5075147;28;20673;-65
2023/05/06 04:52:50;;;;;;;5.65;4.50;;;15.90;99.90;;;;;;5075513;28;20211;-66
2023/05/06 04:55:17;;;;;;;7.32;4.55;;;16.00;99.90;;;;;;5075525;28;20266;-65
2023/05/06 04:57:43;;;;;;;7.18;4.75;;;16.10;99.90;;;;;;5075210;28;20283;-65
2023/05/06 05:00:11;;;;;;;7.05;5.38;;;16.30;99.90;;;;;;5075151;28;20201;-65
2023/05/06 05:02:38;;;;;;;4.95;4.20;;;16.40;99.90;;;;;;5075142;28;20224;-65
2023/05/06 05:05:07;;;;;;;6.70;5.22;;;16.70;99.90;;;;;;5074902;28;20228;-65
2023/05/06 05:07:34;;;;;;;11.65;9.05;;;16.80;99.90;;;;;;5075232;28;20205;-66
2023/05/06 05:10:00;;;;;;;7.75;4.63;;;16.90;99.90;;;;;;5074706;28;20706;-66
2023/05/06 05:12:27;;;;;;;5.65;3.92;;;17.10;99.90;;;;;;5075306;28;20201;-66
2023/05/06 05:14:54;;;;;;;13.13;8.45;;;17.30;99.90;;;;;;5075361;28;20227;-65
2023/05/06 05:17:21;;;;;;;6.47;4.45;;;17.50;99.90;;;;;;5077307;28;20209;-66
2023/05/06 05:19:47;;;;;;;6.60;3.63;;;17.60;99.90;;;;;;5076929;28;20676;-65
2023/05/06 05:22:15;;;;;;;4.57;4.13;;;17.70;99.90;;;;;;5077185;28;20229;-65
2023/05/06 05:24:42;;;;;;;5.95;3.85;;;17.90;99.90;;;;;;5075777;28;20320;-66
2023/05/06 05:27:09;;;;;;;4.18;3.70;;;18.00;99.90;;;;;;5075188;28;20211;-65
2023/05/06 05:29:36;;;;;;;4.38;3.22;;;18.00;99.90;;;;;;5074863;28;20201;-65
2023/05/06 05:32:03;;;;;;;4.47;4.07;;;18.20;99.90;;;;;;5075594;28;20201;-65
2023/05/06 05:34:31;;;;;;;7.30;5.68;;;18.40;99.90;;;;;;5075139;28;20690;-66
2023/05/06 05:36:58;;;;;;;9.40;5.80;;;19.00;99.90;;;;;;5074998;28;20245;-65
2023/05/06 05:39:26;;;;;;;6.78;3.50;;;20.60;99.90;;;;;;5074788;28;20209;-67
2023/05/06 05:41:52;;;;;;;3.83;3.53;;;22.10;99.90;;;;;;5075162;28;20772;-66
2023/05/06 05:44:19;;;;;;;3.85;3.15;;;22.90;99.90;;;;;;5074742;28;20656;-67
2023/05/06 05:46:46;;;;;;;4.20;3.28;;;22.90;99.90;;;;;;5074424;28;20738;-66
2023/05/06 05:49:13;;;;;;;3.03;2.72;;;22.50;99.90;;;;;;5074613;28;20224;-65
2023/05/06 05:51:40;;;;;;;7.28;3.70;;;22.00;99.90;;;;;;5074446;28;20308;-66
2023/05/06 05:54:06;;;;;;;7.93;4.90;;;21.40;99.90;;;;;;5073233;28;20311;-66
2023/05/06 05:56:34;;;;;;;4.30;3.83;;;20.70;99.90;;;;;;5074160;28;20213;-66
2023/05/06 05:59:01;;;;;;;7.00;4.00;;;20.10;99.90;;;;;;5074074;28;20205;-66
2023/05/06 06:01:28;;;;;;;5.88;4.30;;;19.60;99.90;;;;;;5073953;28;20233;-67
2023/05/06 06:03:55;;;;;;;5.70;3.90;;;19.40;99.90;;;;;;5073982;28;20237;-65
2023/05/06 06:06:22;;;;;;;4.40;3.38;;;19.50;99.90;;;;;;5074105;28;20215;-65
2023/05/06 06:08:49;;;;;;;4.60;3.60;;;20.00;99.90;;;;;;5073895;28;20205;-66
2023/05/06 06:11:15;;;;;;;5.97;4.13;;;20.70;99.90;;;;;;5074128;28;20262;-66
2023/05/06 06:13:43;;;;;;;4.13;3.45;;;20.90;99.90;;;;;;5073867;28;20220;-60
2023/05/06 06:16:11;;;;;;;7.25;6.53;;;21.10;99.90;;;;;;5073844;28;20205;-66
2023/05/06 06:18:37;;;;;;;5.85;4.60;;;21.30;99.90;;;;;;5060362;28;20638;-66
2023/05/06 06:21:04;;;;;;;4.60;3.50;;;21.70;99.90;;;;;;5056273;28;20197;-68
2023/05/06 06:23:31;;;;;;;8.05;4.13;;;22.90;99.90;;;;;;5072676;28;20239;-64
2023/05/06 06:25:58;;;;;;;3.97;3.25;;;23.50;99.90;;;;;;5072256;28;20588;-64
2023/05/06 06:28:25;;;;;;;5.30;3.50;;;22.90;99.90;;;;;;5072289;28;20216;-63
2023/05/06 06:30:53;;;;;;;7.68;4.07;;;21.90;99.90;;;;;;5071990;28;20213;-63
2023/05/06 06:33:19;;;;;;;5.97;3.80;;;21.50;99.90;;;;;;5072013;28;20205;-65
2023/05/06 06:35:46;;;;;;;5.07;3.83;;;21.50;99.90;;;;;;5072713;28;20201;-61
2023/05/06 06:38:13;;;;;;;4.38;3.83;;;21.40;99.90;;;;;;5072852;28;20209;-68
2023/05/06 06:40:39;;;;;;;6.35;3.92;;;21.00;99.90;;;;;;5071854;28;20212;-65
2023/05/06 06:43:06;;;;;;;4.82;3.85;;;20.70;99.90;;;;;;5072113;28;20225;-63
2023/05/06 06:45:33;;;;;;;4.97;4.13;;;20.60;99.90;;;;;;5072711;28;20610;-65
2023/05/06 06:48:01;;;;;;;6.90;3.38;;;20.90;99.90;;;;;;5072934;28;20695;-65
2023/05/06 06:50:27;;;;;;;11.23;3.60;;;21.80;99.90;;;;;;5073043;28;20224;-65
2023/05/06 06:52:54;;;;;;;5.35;3.45;;;22.70;99.90;;;;;;5072667;28;20590;-65
2023/05/06 06:55:21;;;;;;;3.58;3.08;;;23.10;99.90;;;;;;5072413;28;20233;-66
2023/05/06 06:57:48;;;;;;;3.53;2.75;;;23.60;99.90;;;;;;5072974;28;20205;-62
2023/05/06 07:00:15;;;;;;;4.38;3.28;;;23.90;99.90;;;;;;5072434;28;20724;-64
2023/05/06 07:02:42;;;;;;;3.10;2.80;;;24.00;99.90;;;;;;5072245;28;20229;-63
2023/05/06 07:05:10;;;;;;;3.72;2.83;;;24.50;99.90;;;;;;5072882;28;20286;-64
2023/05/06 07:07:37;;;;;;;3.53;2.50;;;25.00;99.90;;;;;;5073543;28;20205;-61
2023/05/06 07:10:04;;;;;;;5.65;2.80;;;26.40;99.90;;;;;;5069821;28;20262;-65
2023/05/06 07:12:31;;;;;;;3.53;2.50;;;26.90;99.90;;;;;;5073963;28;20197;-65
2023/05/06 07:14:58;;;;;;;3.40;2.78;;;27.30;99.90;;;;;;5080549;28;20224;-64
2023/05/06 07:17:25;;;;;;;2.60;2.40;;;28.00;99.90;;;;;;5078339;28;20243;-63
2023/05/06 07:19:51;;;;;;;3.80;2.42;;;28.70;99.90;;;;;;5077418;28;20209;-64
2023/05/06 07:22:19;;;;;;;3.95;2.33;;;29.10;97.90;;;;;;5079020;28;20205;-67
2023/05/06 07:24:46;;;;;;;3.55;2.35;;;29.50;97.00;;;;;;5082278;28;20225;-66
2023/05/06 07:27:12;;;;;;;2.85;2.30;;;29.40;95.60;;;;;;5076225;28;20209;-65
2023/05/06 07:29:40;;;;;;;2.60;2.25;;;29.30;94.70;;;;;;5072225;28;20213;-64
2023/05/06 07:32:06;;;;;;;3.40;2.17;;;29.50;93.70;;;;;;5071555;28;20297;-64
2023/05/06 07:34:34;;;;;;;4.57;2.88;;;29.30;93.50;;;;;;5071508;28;20717;-64
2023/05/06 07:37:02;;;;;;;4.22;2.50;;;28.50;94.40;;;;;;5071679;28;20735;-63
2023/05/06 07:39:30;;;;;;;3.22;2.58;;;27.10;95.90;;;;;;5071653;28;20254;-66
2023/05/06 07:41:57;;;;;;;4.90;2.70;;;25.90;97.90;;;;;;5072015;28;20205;-65
2023/05/06 07:44:24;;;;;;;2.83;2.22;;;25.20;98.90;;;;;;5103955;22;20228;-58
2023/05/06 07:46:51;;;;;;;4.68;2.50;;;24.60;99.30;;;;;;5091701;28;20204;-58
2023/05/06 07:49:17;;;;;;;3.10;2.50;;;24.80;99.90;;;;;;5092347;28;20205;-57
2023/05/06 07:51:44;;;;;;;3.63;2.70;;;26.90;98.20;;;;;;5091786;28;20204;-57
2023/05/06 07:54:11;;;;;;;3.63;2.30;;;29.40;94.10;;;;;;5091747;28;20393;-59
2023/05/06 07:56:39;;;;;;;3.88;2.50;;;30.70;90.90;;;;;;5091859;28;20210;-58
2023/05/06 07:59:06;;;;;;;3.03;2.35;;;31.20;89.70;;;;;;5091163;28;20694;-58
2023/05/06 08:01:32;;;;;;;2.50;2.30;;;31.60;85.40;;;;;;5091585;28;20204;-58
2023/05/06 08:04:00;;;;;;;4.00;2.65;;;31.80;83.20;;;;;;5091444;28;20228;-59
2023/05/06 08:06:26;;;;;;;1.80;1.70;;;32.30;81.50;;;;;;5092163;28;20273;-58
2023/05/06 08:08:53;;;;;;;2.60;1.90;;;32.40;78.30;;;;;;5091476;28;20265;-59
2023/05/06 08:11:20;;;;;;;4.40;2.03;;;31.20;79.80;;;;;;5091267;28;20581;-59
2023/05/06 08:13:48;;;;;;;2.33;2.00;;;30.70;81.80;;;;;;5090825;28;20748;-59
2023/05/06 08:16:15;;;;;;;3.85;1.80;;;31.20;81.50;;;;;;5090960;28;20227;-59
2023/05/06 08:18:42;;;;;;;2.15;1.70;;;32.40;77.40;;;;;;5091346;28;20573;-60
2023/05/06 08:21:08;;;;;;;2.15;1.65;;;33.60;74.30;;;;;;5091527;28;20231;-59
2023/05/06 08:23:35;;;;;;;3.65;2.50;;;34.30;70.70;;;;;;5090764;28;20223;-60
2023/05/06 08:26:02;;;;;;;3.92;1.70;;;33.20;71.30;;;;;;5091529;28;20204;-60
2023/05/06 08:28:29;;;;;;;2.60;1.77;;;31.50;73.60;;;;;;5091445;28;20745;-58
2023/05/06 08:30:57;;;;;;;1.95;1.70;;;30.70;76.70;;;;;;5091470;28;20386;-60
2023/05/06 08:33:24;;;;;;;3.28;2.20;;;30.00;77.30;;;;;;5091349;28;20687;-58
2023/05/06 08:35:50;;;;;;;2.83;2.03;;;29.30;80.10;;;;;;5090981;28;20203;-57
2023/05/06 08:38:17;;;;;;;2.33;1.70;;;28.50;82.30;;;;;;5091294;28;20203;-58
2023/05/06 08:40:45;;;;;;;1.67;1.40;;;27.40;83.40;;;;;;5090660;28;20204;-58
2023/05/06 08:43:13;;;;;;;4.93;2.40;;;26.60;86.40;;;;;;5091292;28;20231;-58
2023/05/06 08:45:40;;;;;;;2.42;2.03;;;25.90;90.40;;;;;;5091115;28;20263;-59
2023/05/06 08:48:09;;;;;;;4.43;1.80;;;25.30;91.20;;;;;;5091128;28;20715;-58
2023/05/06 08:50:41;;;;;;;2.22;1.58;;;25.00;92.00;;;;;;5091360;28;20211;-58
2023/05/06 08:53:11;;;;;;;2.95;1.80;;;24.80;91.50;;;;;;5091287;28;20206;-58
2023/05/06 08:55:39;;;;;;;2.30;1.88;;;24.80;92.30;;;;;;5092065;28;20232;-59
2023/05/06 08:58:07;;;;;;;3.38;2.13;;;24.60;92.50;;;;;;5091188;28;20212;-58
2023/05/06 09:00:35;;;;;;;3.28;1.70;;;24.50;92.90;;;;;;5090661;28;20216;-58
2023/05/06 09:03:02;;;;;;;2.95;1.60;;;24.30;93.20;;;;;;5091001;28;20220;-58
2023/05/06 09:05:30;;;;;;;5.03;1.60;;;24.10;93.70;;;;;;5091171;28;20220;-57
2023/05/06 09:07:56;;;;;;;2.10;1.30;;;23.90;93.80;;;;;;5090443;28;20207;-59
2023/05/06 09:10:23;;;;;;;4.45;1.40;;;23.80;93.80;;;;;;5091191;28;20227;-58
2023/05/06 09:12:53;;;;;;;4.90;1.50;;;23.90;93.10;;;;;;5090485;28;20215;-58
2023/05/06 09:15:24;;;;;;;1.95;1.60;;;23.80;92.90;;;;;;5090979;28;20231;-58
2023/05/06 09:17:50;;;;;;;2.22;1.55;;;23.60;93.60;;;;;;5091221;28;20295;-58
2023/05/06 09:20:17;;;;;;;3.53;1.20;;;23.70;93.80;;;;;;5090681;28;20442;-59
2023/05/06 09:22:45;;;;;;;1.83;1.25;;;23.90;93.60;;;;;;5091032;28;20207;-58
2023/05/06 09:25:12;;;;;;;2.05;1.20;;;24.20;93.20;;;;;;5071141;28;20236;-56
2023/05/06 09:27:39;;;;;;;2.50;1.27;;;24.50;92.60;;;;;;5091433;28;20299;-56
2023/05/06 09:30:08;;;;;;;2.42;1.20;;;24.50;91.70;;;;;;5094747;28;20265;-58
2023/05/06 09:32:35;;;;;;;3.22;1.02;;;24.10;91.90;;;;;;5095033;28;20747;-57
2023/05/06 09:35:02;;;;;;;1.92;1.20;;;23.70;92.90;;;;;;5094190;28;20216;-59
2023/05/06 09:37:29;;;;;;;2.25;1.10;;;23.30;93.60;;;;;;5094566;28;20610;-61
2023/05/06 09:39:58;;;;;;;3.50;1.10;;;23.10;94.20;;;;;;5095257;28;20208;-61
2023/05/06 09:42:27;;;;;;;2.15;1.20;;;23.10;94.30;;;;;;5095095;28;20226;-59
2023/05/06 09:44:55;;;;;;;3.05;0.98;;;23.20;93.10;;;;;;5094857;28;20258;-63
2023/05/06 09:47:23;;;;;;;2.13;1.05;;;23.30;93.00;;;;;;5094620;28;20680;-60
2023/05/06 09:49:50;;;;;;;1.30;1.20;;;23.40;93.80;;;;;;5094322;28;20212;-61
2023/05/06 09:52:18;;;;;;;2.55;1.00;;;23.40;93.90;;;;;;5094458;28;20688;-60
2023/05/06 09:54:45;;;;;;;1.80;1.10;;;23.70;93.10;;;;;;5094256;28;20216;-61
2023/05/06 09:57:15;;;;;;;1.38;0.90;;;24.00;92.60;;;;;;5093937;28;20672;-57
2023/05/06 09:59:44;;;;;;;1.70;0.90;;;24.20;92.00;;;;;;5094174;28;20621;-58
2023/05/06 10:02:12;;;;;;;2.15;1.33;;;24.30;92.20;;;;;;5094302;28;20208;-57
2023/05/06 10:04:40;;;;;;;1.15;0.82;;;24.70;91.60;;;;;;5094540;28;20228;-57
2023/05/06 10:07:10;;;;;;;2.28;0.73;;;25.00;91.00;;;;;;5093962;28;20208;-57
2023/05/06 10:09:38;;;;;;;2.03;0.80;;;25.30;90.60;;;;;;5094431;28;20227;-58
2023/05/06 10:12:07;;;;;;;1.40;0.80;;;25.70;87.90;;;;;;5093994;28;20200;-58
2023/05/06 10:14:35;;;;;;;1.08;0.68;;;26.00;84.90;;;;;;5093276;28;20216;-57
2023/05/06 10:17:03;;;;;;;1.90;0.93;;;26.20;83.10;;;;;;5093786;28;20211;-56
2023/05/06 10:19:31;;;;;;;1.35;1.00;;;26.40;81.80;;;;;;5093754;28;20578;-56
2023/05/06 10:22:05;;;;;;;2.60;0.60;;;26.50;82.00;;;;;;5093649;28;20212;-58
2023/05/06 10:24:36;;;;;;;0.80;0.50;;;26.30;82.60;;;;;;5093974;28;20228;-57
2023/05/06 10:27:06;;;;;;;1.27;0.73;;;26.30;84.20;;;;;;5094080;28;20208;-57
2023/05/06 10:29:37;;;;;;;1.17;0.65;;;26.30;82.10;;;;;;5094521;28;20208;-57
2023/05/06 10:32:05;;;;;;;0.98;0.60;;;26.40;79.70;;;;;;5095131;28;20232;-58
2023/05/06 10:34:40;;;;;;;1.35;0.85;;;26.30;80.50;;;;;;5094601;28;20231;-58
2023/05/06 10:37:09;;;;;;;0.90;0.70;;;26.30;80.20;;;;;;5094784;28;20440;-57
2023/05/06 10:39:36;;;;;;;0.70;0.60;;;26.40;79.50;;;;;;5094198;28;20208;-59
2023/05/06 10:42:04;;;;;;;1.02;0.80;;;26.50;80.10;;;;;;5094490;28;20208;-58
2023/05/06 10:44:57;;;;;;;1.25;0.80;;;26.60;80.70;;;;;;5093527;28;20319;-58
2023/05/06 10:47:24;;;;;;;1.83;0.70;;;26.90;80.20;;;;;;5093930;28;20204;-59
2023/05/06 10:50:20;;;;;;;2.47;0.80;;;27.10;78.80;;;;;;5094607;28;20204;-58
2023/05/06 10:52:48;;;;;;;0.57;0.57;;;27.30;77.60;;;;;;5094234;28;20664;-59
2023/05/06 10:55:29;;;;;;;1.38;0.88;;;27.10;78.10;;;;;;5093474;28;20221;-57
2023/05/06 10:57:57;;;;;;;0.80;0.80;;;26.80;78.30;;;;;;5093053;28;20204;-57
2023/05/06 11:00:25;;;;;;;1.10;0.70;;;26.40;79.40;;;;;;5092459;28;20615;-56
2023/05/06 11:02:57;;;;;;;0.75;0.75;;;26.20;78.60;;;;;;5092979;28;20258;-57
2023/05/06 11:05:24;;;;;;;1.80;0.90;;;26.30;78.00;;;;;;5092678;28;20228;-57
2023/05/06 11:07:52;;;;;;;3.03;0.80;;;26.00;78.10;;;;;;5092270;28;20242;-57
2023/05/06 11:10:32;;;;;;;2.00;0.75;;;25.70;80.10;;;;;;5092870;28;20231;-57
2023/05/06 11:13:17;;;;;;;1.67;0.82;;;25.20;80.00;;;;;;5092744;28;20211;-58
2023/05/06 11:15:46;;;;;;;1.02;0.80;;;25.10;81.20;;;;;;5092576;28;20256;-57
2023/05/06 11:18:41;;;;;;;1.85;1.00;;;25.40;82.00;;;;;;5092868;28;20239;-58
2023/05/06 11:21:37;;;;;;;1.08;0.93;;;25.50;81.70;;;;;;5092382;28;20215;-58
2023/05/06 11:24:11;;;;;;;0.90;0.85;;;25.40;82.30;;;;;;5092574;28;20228;-57
2023/05/06 11:26:40;;;;;;;0.88;0.70;;;25.30;80.50;;;;;;5092129;28;20687;-58
2023/05/06 11:29:08;;;;;;;2.70;0.80;;;24.90;81.70;;;;;;5092186;28;20204;-58
2023/05/06 11:31:43;;;;;;;0.55;0.50;;;24.50;81.40;;;;;;5092333;28;20219;-56
2023/05/06 11:34:12;;;;;;;1.27;0.60;;;24.10;81.30;;;;;;5092400;28;20232;-58
2023/05/06 11:36:47;;;;;;;1.90;0.50;;;24.00;81.50;;;;;;5092014;28;20204;-58
2023/05/06 11:39:14;;;;;;;2.95;1.60;;;23.90;81.20;;;;;;5092193;28;20249;-58
2023/05/06 11:41:41;;;;;;;1.65;0.88;;;23.80;80.80;;;;;;5092461;28;20204;-58
2023/05/06 11:44:10;;;;;;;0.25;0.25;;;23.80;80.20;;;;;;5091180;28;20606;-58
2023/05/06 11:46:38;;;;;;;0.75;0.30;;;23.80;79.10;;;;;;5091952;28;20738;-57
2023/05/06 11:49:06;;;;;;;1.55;0.57;;;23.90;77.70;;;;;;5092455;28;20208;-58
2023/05/06 11:51:32;;;;;;;2.33;0.80;;;23.80;78.00;;;;;;5090728;28;20224;-58
2023/05/06 11:54:08;;;;;;;0.88;0.60;;;23.60;80.90;;;;;;5092000;28;20220;-56
2023/05/06 11:56:49;;;;;;;2.85;0.40;;;23.50;81.60;;;;;;5091674;28;20211;-57
2023/05/06 11:59:15;;;;;;;1.08;0.57;;;23.40;81.50;;;;;;5091389;28;20226;-57
2023/05/06 12:01:43;;;;;;;1.27;0.85;;;23.50;80.50;;;;;;5091364;28;20290;-58
2023/05/06 12:04:12;;;;;;;1.90;0.88;;;23.70;81.20;;;;;;5091586;28;20228;-58
2023/05/06 12:06:39;;;;;;;0.95;0.40;;;23.80;79.80;;;;;;5091790;28;20204;-58
2023/05/06 12:09:09;;;;;;;0.63;0.50;;;23.80;77.20;;;;;;5091881;28;20270;-58
2023/05/06 12:11:36;;;;;;;2.25;0.70;;;23.90;79.90;;;;;;5091724;28;20261;-57
2023/05/06 12:14:05;;;;;;;0.70;0.57;;;24.00;79.70;;;;;;5091285;28;20257;-58
2023/05/06 12:16:33;;;;;;;2.38;0.60;;;24.00;79.30;;;;;;5091556;28;20249;-58
2023/05/06 12:19:00;;;;;;;2.72;0.57;;;23.90;76.60;;;;;;5091666;28;20256;-58
2023/05/06 12:21:28;;;;;;;1.77;1.20;;;23.80;74.00;;;;;;5091313;28;20226;-58
2023/05/06 12:23:58;;;;;;;1.88;0.70;;;23.80;74.10;;;;;;5092118;28;20285;-62
2023/05/06 12:26:26;;;;;;;2.35;0.65;;;24.00;76.50;;;;;;5091843;28;20231;-59
2023/05/06 12:29:07;;;;;;;1.42;0.80;;;24.10;78.00;;;;;;5091128;28;20208;-58
2023/05/06 12:31:35;;;;;;;1.33;0.50;;;24.10;77.70;;;;;;5091624;28;20258;-59
2023/05/06 12:34:02;;;;;;;1.33;0.68;;;24.00;77.10;;;;;;5091495;28;20232;-60
2023/05/06 12:36:31;;;;;;;0.73;0.50;;;24.20;77.00;;;;;;5091249;28;20205;-58
2023/05/06 12:38:59;;;;;;;0.93;0.60;;;24.30;75.80;;;;;;5091628;28;20683;-61
2023/05/06 12:41:36;;;;;;;2.10;0.70;;;24.40;75.80;;;;;;5091574;28;20204;-58
2023/05/06 12:44:14;;;;;;;2.15;0.70;;;24.50;75.90;;;;;;5090748;28;20235;-60
2023/05/06 12:46:51;;;;;;;0.40;0.40;;;24.60;75.60;;;;;;5091133;28;20218;-60
2023/05/06 12:49:18;;;;;;;0.38;0.38;;;24.80;76.20;;;;;;5091472;28;20747;-60
2023/05/06 12:51:46;;;;;;;1.02;0.52;;;24.90;75.50;;;;;;5090546;28;20200;-60